Time;durP1;ratioP1;P1;durP2;ratioP2;P2;SDS_P1;SDS_P2;PMS_P1;PMS_P2;Temp;Humidity;BMP_temperature;BMP_pressure;BME280_temperature;BME280_humidity;BME280_pressure;Samples;Min_cycle;Max_cycle;Signal;HPM_P1;HPM_P2
2021/01/09 00:00:57;;;;;;;14.75;8.100001;;;;;;;-0.8;86.67773;95232.44;;;;
2021/01/09 00:01:57;;;;;;;14.75;8.100001;;;;;;;-0.8;86.67773;95232.44;;;;
2021/01/09 00:02:58;;;;;;;14.75;8.100001;;;;;;;-0.8;86.67773;95232.44;;;;
2021/01/09 00:03:58;;;;;;;14.75;8.100001;;;;;;;-0.8;86.67773;95232.44;;;;
2021/01/09 00:04:59;;;;;;;14.75;8.100001;;;;;;;-0.8;86.67773;95232.44;;;;
2021/01/09 00:05:59;;;;;;;14.75;8.100001;;;;;;;-0.8;86.67773;95232.44;;;;
2021/01/09 00:07:00;;;;;;;14.75;8.100001;;;;;;;-0.8;86.67773;95232.44;;;;
2021/01/09 00:08:00;;;;;;;14.75;8.100001;;;;;;;-0.8;86.67773;95232.44;;;;
2021/01/09 00:09:01;;;;;;;14.75;8.100001;;;;;;;-0.8;86.67773;95232.44;;;;
2021/01/09 00:10:02;;;;;;;14.75;8.100001;;;;;;;-0.8;86.67773;95232.44;;;;
2021/01/09 00:11:05;;;;;;;15.1;7.650001;;;;;;;-0.86;86.57129;95230.97;;;;
2021/01/09 00:12:06;;;;;;;15.1;7.650001;;;;;;;-0.86;86.57129;95230.97;;;;
2021/01/09 00:13:10;;;;;;;15.1;7.650001;;;;;;;-0.86;86.57129;95230.97;;;;
2021/01/09 00:14:11;;;;;;;15.1;7.650001;;;;;;;-0.86;86.57129;95230.97;;;;
2021/01/09 00:15:11;;;;;;;15.1;7.650001;;;;;;;-0.86;86.57129;95230.97;;;;
2021/01/09 00:16:12;;;;;;;15.1;7.650001;;;;;;;-0.86;86.57129;95230.97;;;;
2021/01/09 00:17:13;;;;;;;15.1;7.650001;;;;;;;-0.86;86.57129;95230.97;;;;
2021/01/09 00:18:13;;;;;;;15.1;7.650001;;;;;;;-0.86;86.57129;95230.97;;;;
2021/01/09 00:19:14;;;;;;;15.1;7.650001;;;;;;;-0.86;86.57129;95230.97;;;;
2021/01/09 00:20:15;;;;;;;15.1;7.650001;;;;;;;-0.86;86.57129;95230.97;;;;
2021/01/09 00:21:16;;;;;;;15.1;7.650001;;;;;;;-0.86;86.57129;95230.97;;;;
2021/01/09 00:22:16;;;;;;;13.55;8.4;;;;;;;-0.84;86.64941;95229.79;;;;
2021/01/09 00:23:17;;;;;;;13.55;8.4;;;;;;;-0.84;86.64941;95229.79;;;;
2021/01/09 00:24:17;;;;;;;13.55;8.4;;;;;;;-0.84;86.64941;95229.79;;;;
2021/01/09 00:25:18;;;;;;;13.55;8.4;;;;;;;-0.84;86.64941;95229.79;;;;
2021/01/09 00:26:19;;;;;;;13.55;8.4;;;;;;;-0.84;86.64941;95229.79;;;;
2021/01/09 00:27:20;;;;;;;13.55;8.4;;;;;;;-0.84;86.64941;95229.79;;;;
2021/01/09 00:28:20;;;;;;;13.55;8.4;;;;;;;-0.84;86.64941;95229.79;;;;
2021/01/09 00:29:21;;;;;;;13.55;8.4;;;;;;;-0.84;86.64941;95229.79;;;;
2021/01/09 00:30:21;;;;;;;13.55;8.4;;;;;;;-0.84;86.64941;95229.79;;;;
2021/01/09 00:31:23;;;;;;;13.55;8.4;;;;;;;-0.84;86.64941;95229.79;;;;
2021/01/09 00:32:23;;;;;;;13.5;8.5;;;;;;;-0.88;86.48633;95233.76;;;;
2021/01/09 00:33:24;;;;;;;13.5;8.5;;;;;;;-0.88;86.48633;95233.76;;;;
2021/01/09 00:34:24;;;;;;;13.5;8.5;;;;;;;-0.88;86.48633;95233.76;;;;
2021/01/09 00:35:25;;;;;;;13.5;8.5;;;;;;;-0.88;86.48633;95233.76;;;;
2021/01/09 00:36:25;;;;;;;13.5;8.5;;;;;;;-0.88;86.48633;95233.76;;;;
2021/01/09 00:37:26;;;;;;;13.5;8.5;;;;;;;-0.88;86.48633;95233.76;;;;
2021/01/09 00:38:27;;;;;;;13.5;8.5;;;;;;;-0.88;86.48633;95233.76;;;;
2021/01/09 00:39:28;;;;;;;13.5;8.5;;;;;;;-0.88;86.48633;95233.76;;;;
2021/01/09 00:40:28;;;;;;;13.5;8.5;;;;;;;-0.88;86.48633;95233.76;;;;
2021/01/09 00:41:29;;;;;;;13.5;8.5;;;;;;;-0.88;86.48633;95233.76;;;;
2021/01/09 00:42:31;;;;;;;13.5;8.5;;;;;;;-0.88;86.48633;95233.76;;;;
2021/01/09 00:43:37;;;;;;;13.9;8.050001;;;;;;;-0.93;86.84766;95230.8;;;;
2021/01/09 00:44:37;;;;;;;13.9;8.050001;;;;;;;-0.93;86.84766;95230.8;;;;
2021/01/09 00:45:38;;;;;;;13.9;8.050001;;;;;;;-0.93;86.84766;95230.8;;;;
2021/01/09 00:46:38;;;;;;;13.9;8.050001;;;;;;;-0.93;86.84766;95230.8;;;;
2021/01/09 00:47:39;;;;;;;13.9;8.050001;;;;;;;-0.93;86.84766;95230.8;;;;
2021/01/09 00:48:39;;;;;;;13.9;8.050001;;;;;;;-0.93;86.84766;95230.8;;;;
2021/01/09 00:49:40;;;;;;;13.9;8.050001;;;;;;;-0.93;86.84766;95230.8;;;;
2021/01/09 00:50:40;;;;;;;13.9;8.050001;;;;;;;-0.93;86.84766;95230.8;;;;
2021/01/09 00:51:41;;;;;;;13.9;8.050001;;;;;;;-0.93;86.84766;95230.8;;;;
2021/01/09 00:52:45;;;;;;;13.9;8.050001;;;;;;;-0.93;86.84766;95230.8;;;;
2021/01/09 00:53:45;;;;;;;14.95;7.799999;;;;;;;-0.91;86.7373;95234.11;;;;
2021/01/09 00:54:46;;;;;;;14.95;7.799999;;;;;;;-0.91;86.7373;95234.11;;;;
2021/01/09 00:55:46;;;;;;;14.95;7.799999;;;;;;;-0.91;86.7373;95234.11;;;;
2021/01/09 00:56:46;;;;;;;14.95;7.799999;;;;;;;-0.91;86.7373;95234.11;;;;
2021/01/09 00:57:51;;;;;;;14.95;7.799999;;;;;;;-0.91;86.7373;95234.11;;;;
2021/01/09 00:58:52;;;;;;;14.95;7.799999;;;;;;;-0.91;86.7373;95234.11;;;;
2021/01/09 00:59:52;;;;;;;14.95;7.799999;;;;;;;-0.91;86.7373;95234.11;;;;
2021/01/09 01:00:53;;;;;;;14.95;7.799999;;;;;;;-0.91;86.7373;95234.11;;;;
2021/01/09 01:01:54;;;;;;;14.95;7.799999;;;;;;;-0.91;86.7373;95234.11;;;;
2021/01/09 01:02:54;;;;;;;14.95;7.799999;;;;;;;-0.91;86.7373;95234.11;;;;
2021/01/09 01:03:55;;;;;;;14.95;7.799999;;;;;;;-0.91;86.7373;95234.11;;;;
2021/01/09 01:04:55;;;;;;;13.45;8.25;;;;;;;-0.96;86.72852;95238.25;;;;
2021/01/09 01:05:57;;;;;;;13.45;8.25;;;;;;;-0.96;86.72852;95238.25;;;;
2021/01/09 01:06:57;;;;;;;13.45;8.25;;;;;;;-0.96;86.72852;95238.25;;;;
2021/01/09 01:07:58;;;;;;;13.45;8.25;;;;;;;-0.96;86.72852;95238.25;;;;
2021/01/09 01:08:58;;;;;;;13.45;8.25;;;;;;;-0.96;86.72852;95238.25;;;;
2021/01/09 01:09:59;;;;;;;13.45;8.25;;;;;;;-0.96;86.72852;95238.25;;;;
2021/01/09 01:10:59;;;;;;;13.45;8.25;;;;;;;-0.96;86.72852;95238.25;;;;
2021/01/09 01:12:02;;;;;;;13.45;8.25;;;;;;;-0.96;86.72852;95238.25;;;;
2021/01/09 01:13:03;;;;;;;13.45;8.25;;;;;;;-0.96;86.72852;95238.25;;;;
2021/01/09 01:14:03;;;;;;;13.45;8.25;;;;;;;-0.96;86.72852;95238.25;;;;
2021/01/09 01:15:04;;;;;;;14.6;8;;;;;;;-1.06;86.69629;95235.38;;;;
2021/01/09 01:16:06;;;;;;;14.6;8;;;;;;;-1.06;86.69629;95235.38;;;;
2021/01/09 01:17:06;;;;;;;14.6;8;;;;;;;-1.06;86.69629;95235.38;;;;
2021/01/09 01:18:07;;;;;;;14.6;8;;;;;;;-1.06;86.69629;95235.38;;;;
2021/01/09 01:19:07;;;;;;;14.6;8;;;;;;;-1.06;86.69629;95235.38;;;;
2021/01/09 01:20:08;;;;;;;14.6;8;;;;;;;-1.06;86.69629;95235.38;;;;
2021/01/09 01:21:10;;;;;;;14.6;8;;;;;;;-1.06;86.69629;95235.38;;;;
2021/01/09 01:22:10;;;;;;;14.6;8;;;;;;;-1.06;86.69629;95235.38;;;;
2021/01/09 01:23:11;;;;;;;14.6;8;;;;;;;-1.06;86.69629;95235.38;;;;
2021/01/09 01:24:12;;;;;;;14.6;8;;;;;;;-1.06;86.69629;95235.38;;;;
2021/01/09 01:25:12;;;;;;;14.6;8;;;;;;;-1.06;86.69629;95235.38;;;;
2021/01/09 01:26:13;;;;;;;14.7;8.35;;;;;;;-1.15;86.87598;95236.38;;;;
2021/01/09 01:27:13;;;;;;;14.7;8.35;;;;;;;-1.15;86.87598;95236.38;;;;
2021/01/09 01:28:14;;;;;;;14.7;8.35;;;;;;;-1.15;86.87598;95236.38;;;;
2021/01/09 01:29:14;;;;;;;14.7;8.35;;;;;;;-1.15;86.87598;95236.38;;;;
2021/01/09 01:30:15;;;;;;;14.7;8.35;;;;;;;-1.15;86.87598;95236.38;;;;
2021/01/09 01:31:16;;;;;;;14.7;8.35;;;;;;;-1.15;86.87598;95236.38;;;;
2021/01/09 01:32:17;;;;;;;14.7;8.35;;;;;;;-1.15;86.87598;95236.38;;;;
2021/01/09 01:33:18;;;;;;;14.7;8.35;;;;;;;-1.15;86.87598;95236.38;;;;
2021/01/09 01:34:18;;;;;;;14.7;8.35;;;;;;;-1.15;86.87598;95236.38;;;;
2021/01/09 01:35:18;;;;;;;14.7;8.35;;;;;;;-1.15;86.87598;95236.38;;;;
2021/01/09 01:36:19;;;;;;;14.9;8.35;;;;;;;-1.23;86.94238;95240.75;;;;
2021/01/09 01:37:20;;;;;;;14.9;8.35;;;;;;;-1.23;86.94238;95240.75;;;;
2021/01/09 01:38:20;;;;;;;14.9;8.35;;;;;;;-1.23;86.94238;95240.75;;;;
2021/01/09 01:39:20;;;;;;;14.9;8.35;;;;;;;-1.23;86.94238;95240.75;;;;
2021/01/09 01:40:21;;;;;;;14.9;8.35;;;;;;;-1.23;86.94238;95240.75;;;;
2021/01/09 01:41:24;;;;;;;14.9;8.35;;;;;;;-1.23;86.94238;95240.75;;;;
2021/01/09 01:42:24;;;;;;;14.9;8.35;;;;;;;-1.23;86.94238;95240.75;;;;
2021/01/09 01:43:25;;;;;;;14.9;8.35;;;;;;;-1.23;86.94238;95240.75;;;;
2021/01/09 01:44:25;;;;;;;14.9;8.35;;;;;;;-1.23;86.94238;95240.75;;;;
2021/01/09 01:45:30;;;;;;;14.9;8.35;;;;;;;-1.23;86.94238;95240.75;;;;
2021/01/09 01:46:30;;;;;;;14.9;8.35;;;;;;;-1.23;86.94238;95240.75;;;;
2021/01/09 01:47:31;;;;;;;14.35;8.050001;;;;;;;-1.29;87.08594;95250.67;;;;
2021/01/09 01:48:32;;;;;;;14.35;8.050001;;;;;;;-1.29;87.08594;95250.67;;;;
2021/01/09 01:49:33;;;;;;;14.35;8.050001;;;;;;;-1.29;87.08594;95250.67;;;;
2021/01/09 01:50:34;;;;;;;14.35;8.050001;;;;;;;-1.29;87.08594;95250.67;;;;
2021/01/09 01:51:34;;;;;;;14.35;8.050001;;;;;;;-1.29;87.08594;95250.67;;;;
2021/01/09 01:52:35;;;;;;;14.35;8.050001;;;;;;;-1.29;87.08594;95250.67;;;;
2021/01/09 01:53:36;;;;;;;14.35;8.050001;;;;;;;-1.29;87.08594;95250.67;;;;
2021/01/09 01:54:36;;;;;;;14.35;8.050001;;;;;;;-1.29;87.08594;95250.67;;;;
2021/01/09 01:55:37;;;;;;;14.35;8.050001;;;;;;;-1.29;87.08594;95250.67;;;;
2021/01/09 01:56:37;;;;;;;14.35;8.050001;;;;;;;-1.29;87.08594;95250.67;;;;
2021/01/09 01:57:38;;;;;;;13.7;8.15;;;;;;;-1.24;87.1582;95251;;;;
2021/01/09 01:58:38;;;;;;;13.7;8.15;;;;;;;-1.24;87.1582;95251;;;;
2021/01/09 01:59:39;;;;;;;13.7;8.15;;;;;;;-1.24;87.1582;95251;;;;
2021/01/09 02:00:45;;;;;;;13.7;8.15;;;;;;;-1.24;87.1582;95251;;;;
2021/01/09 02:01:46;;;;;;;13.7;8.15;;;;;;;-1.24;87.1582;95251;;;;
2021/01/09 02:02:49;;;;;;;13.7;8.15;;;;;;;-1.24;87.1582;95251;;;;
2021/01/09 02:03:51;;;;;;;13.7;8.15;;;;;;;-1.24;87.1582;95251;;;;
2021/01/09 02:04:51;;;;;;;13.7;8.15;;;;;;;-1.24;87.1582;95251;;;;
2021/01/09 02:05:57;;;;;;;13.7;8.15;;;;;;;-1.24;87.1582;95251;;;;
2021/01/09 02:07:01;;;;;;;13.7;8.15;;;;;;;-1.24;87.1582;95251;;;;
2021/01/09 02:08:07;;;;;;;13.7;8.15;;;;;;;-1.24;87.1582;95251;;;;
2021/01/09 02:09:11;;;;;;;14.95;9.150001;;;;;;;-1.23;87.00586;95257.48;;;;
2021/01/09 02:10:16;;;;;;;14.95;9.150001;;;;;;;-1.23;87.00586;95257.48;;;;
2021/01/09 02:11:17;;;;;;;14.95;9.150001;;;;;;;-1.23;87.00586;95257.48;;;;
2021/01/09 02:12:27;;;;;;;14.95;9.150001;;;;;;;-1.23;87.00586;95257.48;;;;
2021/01/09 02:13:36;;;;;;;14.95;9.150001;;;;;;;-1.23;87.00586;95257.48;;;;
2021/01/09 02:14:43;;;;;;;14.95;9.150001;;;;;;;-1.23;87.00586;95257.48;;;;
2021/01/09 02:15:47;;;;;;;14.95;9.150001;;;;;;;-1.23;87.00586;95257.48;;;;
2021/01/09 02:16:49;;;;;;;14.95;9.150001;;;;;;;-1.23;87.00586;95257.48;;;;
2021/01/09 02:17:50;;;;;;;14.95;9.150001;;;;;;;-1.23;87.00586;95257.48;;;;
2021/01/09 02:18:52;;;;;;;14.95;9.150001;;;;;;;-1.23;87.00586;95257.48;;;;
2021/01/09 02:19:53;;;;;;;16.75;9.4;;;;;;;-1.17;86.94531;95239.15;;;;
2021/01/09 02:20:57;;;;;;;16.75;9.4;;;;;;;-1.17;86.94531;95239.15;;;;
2021/01/09 02:22:05;;;;;;;16.75;9.4;;;;;;;-1.17;86.94531;95239.15;;;;
2021/01/09 02:23:08;;;;;;;16.75;9.4;;;;;;;-1.17;86.94531;95239.15;;;;
2021/01/09 02:24:09;;;;;;;16.75;9.4;;;;;;;-1.17;86.94531;95239.15;;;;
2021/01/09 02:25:12;;;;;;;16.75;9.4;;;;;;;-1.17;86.94531;95239.15;;;;
2021/01/09 02:26:13;;;;;;;16.75;9.4;;;;;;;-1.17;86.94531;95239.15;;;;
2021/01/09 02:27:13;;;;;;;16.75;9.4;;;;;;;-1.17;86.94531;95239.15;;;;
2021/01/09 02:28:14;;;;;;;16.75;9.4;;;;;;;-1.17;86.94531;95239.15;;;;
2021/01/09 02:29:14;;;;;;;16.75;9.4;;;;;;;-1.17;86.94531;95239.15;;;;
2021/01/09 02:30:15;;;;;;;14.9;9.049999;;;;;;;-1.12;86.70605;95239.09;;;;
2021/01/09 02:31:22;;;;;;;14.9;9.049999;;;;;;;-1.12;86.70605;95239.09;;;;
2021/01/09 02:32:24;;;;;;;14.9;9.049999;;;;;;;-1.12;86.70605;95239.09;;;;
2021/01/09 02:33:29;;;;;;;14.9;9.049999;;;;;;;-1.12;86.70605;95239.09;;;;
2021/01/09 02:34:33;;;;;;;14.9;9.049999;;;;;;;-1.12;86.70605;95239.09;;;;
2021/01/09 02:35:40;;;;;;;14.9;9.049999;;;;;;;-1.12;86.70605;95239.09;;;;
2021/01/09 02:36:43;;;;;;;14.9;9.049999;;;;;;;-1.12;86.70605;95239.09;;;;
2021/01/09 02:37:43;;;;;;;14.9;9.049999;;;;;;;-1.12;86.70605;95239.09;;;;
2021/01/09 02:38:44;;;;;;;14.9;9.049999;;;;;;;-1.12;86.70605;95239.09;;;;
2021/01/09 02:39:45;;;;;;;14.9;9.049999;;;;;;;-1.12;86.70605;95239.09;;;;
2021/01/09 02:40:46;;;;;;;15.95;9.300001;;;;;;;-1.12;86.64355;95247.05;;;;
2021/01/09 02:41:46;;;;;;;15.95;9.300001;;;;;;;-1.12;86.64355;95247.05;;;;
2021/01/09 02:42:47;;;;;;;15.95;9.300001;;;;;;;-1.12;86.64355;95247.05;;;;
2021/01/09 02:43:48;;;;;;;15.95;9.300001;;;;;;;-1.12;86.64355;95247.05;;;;
2021/01/09 02:44:49;;;;;;;15.95;9.300001;;;;;;;-1.12;86.64355;95247.05;;;;
2021/01/09 02:45:51;;;;;;;15.95;9.300001;;;;;;;-1.12;86.64355;95247.05;;;;
2021/01/09 02:46:52;;;;;;;15.95;9.300001;;;;;;;-1.12;86.64355;95247.05;;;;
2021/01/09 02:47:52;;;;;;;15.95;9.300001;;;;;;;-1.12;86.64355;95247.05;;;;
2021/01/09 02:48:53;;;;;;;15.95;9.300001;;;;;;;-1.12;86.64355;95247.05;;;;
2021/01/09 02:49:53;;;;;;;15.95;9.300001;;;;;;;-1.12;86.64355;95247.05;;;;
2021/01/09 02:50:54;;;;;;;15.95;9.300001;;;;;;;-1.12;86.64355;95247.05;;;;
2021/01/09 02:51:54;;;;;;;16;9.349998;;;;;;;-1.09;86.72168;95251.09;;;;
2021/01/09 02:52:55;;;;;;;16;9.349998;;;;;;;-1.09;86.72168;95251.09;;;;
2021/01/09 02:53:55;;;;;;;16;9.349998;;;;;;;-1.09;86.72168;95251.09;;;;
2021/01/09 02:54:56;;;;;;;16;9.349998;;;;;;;-1.09;86.72168;95251.09;;;;
2021/01/09 02:55:56;;;;;;;16;9.349998;;;;;;;-1.09;86.72168;95251.09;;;;
2021/01/09 02:56:57;;;;;;;16;9.349998;;;;;;;-1.09;86.72168;95251.09;;;;
2021/01/09 02:57:57;;;;;;;16;9.349998;;;;;;;-1.09;86.72168;95251.09;;;;
2021/01/09 02:58:58;;;;;;;16;9.349998;;;;;;;-1.09;86.72168;95251.09;;;;
2021/01/09 02:59:58;;;;;;;16;9.349998;;;;;;;-1.09;86.72168;95251.09;;;;
2021/01/09 03:00:59;;;;;;;16;9.349998;;;;;;;-1.09;86.72168;95251.09;;;;
2021/01/09 03:01:59;;;;;;;18.1;9.150002;;;;;;;-1.04;86.7334;95244.8;;;;
2021/01/09 03:03:00;;;;;;;18.1;9.150002;;;;;;;-1.04;86.7334;95244.8;;;;
2021/01/09 03:04:00;;;;;;;18.1;9.150002;;;;;;;-1.04;86.7334;95244.8;;;;
2021/01/09 03:05:01;;;;;;;18.1;9.150002;;;;;;;-1.04;86.7334;95244.8;;;;
2021/01/09 03:06:01;;;;;;;18.1;9.150002;;;;;;;-1.04;86.7334;95244.8;;;;
2021/01/09 03:07:02;;;;;;;18.1;9.150002;;;;;;;-1.04;86.7334;95244.8;;;;
2021/01/09 03:08:02;;;;;;;18.1;9.150002;;;;;;;-1.04;86.7334;95244.8;;;;
2021/01/09 03:09:03;;;;;;;18.1;9.150002;;;;;;;-1.04;86.7334;95244.8;;;;
2021/01/09 03:10:04;;;;;;;18.1;9.150002;;;;;;;-1.04;86.7334;95244.8;;;;
2021/01/09 03:11:06;;;;;;;18.1;9.150002;;;;;;;-1.04;86.7334;95244.8;;;;
2021/01/09 03:12:07;;;;;;;18.1;9.150002;;;;;;;-1.04;86.7334;95244.8;;;;
2021/01/09 03:13:07;;;;;;;15.8;8.799998;;;;;;;-1.01;86.68555;95245.87;;;;
2021/01/09 03:14:08;;;;;;;15.8;8.799998;;;;;;;-1.01;86.68555;95245.87;;;;
2021/01/09 03:15:09;;;;;;;15.8;8.799998;;;;;;;-1.01;86.68555;95245.87;;;;
2021/01/09 03:16:10;;;;;;;15.8;8.799998;;;;;;;-1.01;86.68555;95245.87;;;;
2021/01/09 03:17:11;;;;;;;15.8;8.799998;;;;;;;-1.01;86.68555;95245.87;;;;
2021/01/09 03:18:11;;;;;;;15.8;8.799998;;;;;;;-1.01;86.68555;95245.87;;;;
2021/01/09 03:19:12;;;;;;;15.8;8.799998;;;;;;;-1.01;86.68555;95245.87;;;;
2021/01/09 03:20:12;;;;;;;15.8;8.799998;;;;;;;-1.01;86.68555;95245.87;;;;
2021/01/09 03:21:13;;;;;;;15.8;8.799998;;;;;;;-1.01;86.68555;95245.87;;;;
2021/01/09 03:22:15;;;;;;;15.8;8.799998;;;;;;;-1.01;86.68555;95245.87;;;;
2021/01/09 03:23:15;;;;;;;17.8;9.05;;;;;;;-1.03;86.61035;95245.63;;;;
2021/01/09 03:24:16;;;;;;;17.8;9.05;;;;;;;-1.03;86.61035;95245.63;;;;
2021/01/09 03:25:16;;;;;;;17.8;9.05;;;;;;;-1.03;86.61035;95245.63;;;;
2021/01/09 03:26:17;;;;;;;17.8;9.05;;;;;;;-1.03;86.61035;95245.63;;;;
2021/01/09 03:27:18;;;;;;;17.8;9.05;;;;;;;-1.03;86.61035;95245.63;;;;
2021/01/09 03:28:18;;;;;;;17.8;9.05;;;;;;;-1.03;86.61035;95245.63;;;;
2021/01/09 03:29:19;;;;;;;17.8;9.05;;;;;;;-1.03;86.61035;95245.63;;;;
2021/01/09 03:30:19;;;;;;;17.8;9.05;;;;;;;-1.03;86.61035;95245.63;;;;
2021/01/09 03:31:20;;;;;;;17.8;9.05;;;;;;;-1.03;86.61035;95245.63;;;;
2021/01/09 03:32:21;;;;;;;17.8;9.05;;;;;;;-1.03;86.61035;95245.63;;;;
2021/01/09 03:33:21;;;;;;;17.8;9.05;;;;;;;-1.03;86.61035;95245.63;;;;
2021/01/09 03:34:22;;;;;;;18.75;9.650001;;;;;;;-1.15;86.7002;95253.07;;;;
2021/01/09 03:35:23;;;;;;;18.75;9.650001;;;;;;;-1.15;86.7002;95253.07;;;;
2021/01/09 03:36:23;;;;;;;18.75;9.650001;;;;;;;-1.15;86.7002;95253.07;;;;
2021/01/09 03:37:24;;;;;;;18.75;9.650001;;;;;;;-1.15;86.7002;95253.07;;;;
2021/01/09 03:38:24;;;;;;;18.75;9.650001;;;;;;;-1.15;86.7002;95253.07;;;;
2021/01/09 03:39:25;;;;;;;18.75;9.650001;;;;;;;-1.15;86.7002;95253.07;;;;
2021/01/09 03:40:25;;;;;;;18.75;9.650001;;;;;;;-1.15;86.7002;95253.07;;;;
2021/01/09 03:41:26;;;;;;;18.75;9.650001;;;;;;;-1.15;86.7002;95253.07;;;;
2021/01/09 03:42:26;;;;;;;18.75;9.650001;;;;;;;-1.15;86.7002;95253.07;;;;
2021/01/09 03:43:27;;;;;;;18.75;9.650001;;;;;;;-1.15;86.7002;95253.07;;;;
2021/01/09 03:44:27;;;;;;;16.25;9.4;;;;;;;-1.24;86.94238;95254.06;;;;
2021/01/09 03:45:27;;;;;;;16.25;9.4;;;;;;;-1.24;86.94238;95254.06;;;;
2021/01/09 03:46:28;;;;;;;16.25;9.4;;;;;;;-1.24;86.94238;95254.06;;;;
2021/01/09 03:47:29;;;;;;;16.25;9.4;;;;;;;-1.24;86.94238;95254.06;;;;
2021/01/09 03:48:29;;;;;;;16.25;9.4;;;;;;;-1.24;86.94238;95254.06;;;;
2021/01/09 03:49:30;;;;;;;16.25;9.4;;;;;;;-1.24;86.94238;95254.06;;;;
2021/01/09 03:50:30;;;;;;;16.25;9.4;;;;;;;-1.24;86.94238;95254.06;;;;
2021/01/09 03:51:31;;;;;;;16.25;9.4;;;;;;;-1.24;86.94238;95254.06;;;;
2021/01/09 03:52:31;;;;;;;16.25;9.4;;;;;;;-1.24;86.94238;95254.06;;;;
2021/01/09 03:53:32;;;;;;;16.25;9.4;;;;;;;-1.24;86.94238;95254.06;;;;
2021/01/09 03:54:32;;;;;;;16.25;9.4;;;;;;;-1.24;86.94238;95254.06;;;;
2021/01/09 03:55:33;;;;;;;16.65;9.949999;;;;;;;-1.3;87.17773;95255.16;;;;
2021/01/09 03:56:33;;;;;;;16.65;9.949999;;;;;;;-1.3;87.17773;95255.16;;;;
2021/01/09 03:57:34;;;;;;;16.65;9.949999;;;;;;;-1.3;87.17773;95255.16;;;;
2021/01/09 03:58:34;;;;;;;16.65;9.949999;;;;;;;-1.3;87.17773;95255.16;;;;
2021/01/09 03:59:35;;;;;;;16.65;9.949999;;;;;;;-1.3;87.17773;95255.16;;;;
2021/01/09 04:00:35;;;;;;;16.65;9.949999;;;;;;;-1.3;87.17773;95255.16;;;;
2021/01/09 04:01:36;;;;;;;16.65;9.949999;;;;;;;-1.3;87.17773;95255.16;;;;
2021/01/09 04:02:36;;;;;;;16.65;9.949999;;;;;;;-1.3;87.17773;95255.16;;;;
2021/01/09 04:03:37;;;;;;;16.65;9.949999;;;;;;;-1.3;87.17773;95255.16;;;;
2021/01/09 04:04:37;;;;;;;16.65;9.949999;;;;;;;-1.3;87.17773;95255.16;;;;
2021/01/09 04:05:38;;;;;;;16.65;9.949999;;;;;;;-1.3;87.17773;95255.16;;;;
2021/01/09 04:06:38;;;;;;;18.1;10.1;;;;;;;-1.34;87.20117;95254.74;;;;
2021/01/09 04:07:39;;;;;;;18.1;10.1;;;;;;;-1.34;87.20117;95254.74;;;;
2021/01/09 04:08:39;;;;;;;18.1;10.1;;;;;;;-1.34;87.20117;95254.74;;;;
2021/01/09 04:09:40;;;;;;;18.1;10.1;;;;;;;-1.34;87.20117;95254.74;;;;
2021/01/09 04:10:40;;;;;;;18.1;10.1;;;;;;;-1.34;87.20117;95254.74;;;;
2021/01/09 04:11:41;;;;;;;18.1;10.1;;;;;;;-1.34;87.20117;95254.74;;;;
2021/01/09 04:12:41;;;;;;;18.1;10.1;;;;;;;-1.34;87.20117;95254.74;;;;
2021/01/09 04:13:42;;;;;;;18.1;10.1;;;;;;;-1.34;87.20117;95254.74;;;;
2021/01/09 04:14:42;;;;;;;18.1;10.1;;;;;;;-1.34;87.20117;95254.74;;;;
2021/01/09 04:15:43;;;;;;;18.1;10.1;;;;;;;-1.34;87.20117;95254.74;;;;
2021/01/09 04:16:43;;;;;;;17.7;9.799999;;;;;;;-1.36;87.36035;95246.61;;;;
2021/01/09 04:17:44;;;;;;;17.7;9.799999;;;;;;;-1.36;87.36035;95246.61;;;;
2021/01/09 04:18:44;;;;;;;17.7;9.799999;;;;;;;-1.36;87.36035;95246.61;;;;
2021/01/09 04:19:44;;;;;;;17.7;9.799999;;;;;;;-1.36;87.36035;95246.61;;;;
2021/01/09 04:20:45;;;;;;;17.7;9.799999;;;;;;;-1.36;87.36035;95246.61;;;;
2021/01/09 04:21:45;;;;;;;17.7;9.799999;;;;;;;-1.36;87.36035;95246.61;;;;
2021/01/09 04:22:47;;;;;;;17.7;9.799999;;;;;;;-1.36;87.36035;95246.61;;;;
2021/01/09 04:23:47;;;;;;;17.7;9.799999;;;;;;;-1.36;87.36035;95246.61;;;;
2021/01/09 04:24:48;;;;;;;17.7;9.799999;;;;;;;-1.36;87.36035;95246.61;;;;
2021/01/09 04:25:48;;;;;;;17.7;9.799999;;;;;;;-1.36;87.36035;95246.61;;;;
2021/01/09 04:26:49;;;;;;;17.7;9.799999;;;;;;;-1.36;87.36035;95246.61;;;;
2021/01/09 04:27:52;;;;;;;19.6;11.15;;;;;;;-1.37;87.3916;95243.16;;;;
2021/01/09 04:28:52;;;;;;;19.6;11.15;;;;;;;-1.37;87.3916;95243.16;;;;
2021/01/09 04:29:53;;;;;;;19.6;11.15;;;;;;;-1.37;87.3916;95243.16;;;;
2021/01/09 04:30:53;;;;;;;19.6;11.15;;;;;;;-1.37;87.3916;95243.16;;;;
2021/01/09 04:31:53;;;;;;;19.6;11.15;;;;;;;-1.37;87.3916;95243.16;;;;
2021/01/09 04:32:55;;;;;;;19.6;11.15;;;;;;;-1.37;87.3916;95243.16;;;;
2021/01/09 04:33:55;;;;;;;19.6;11.15;;;;;;;-1.37;87.3916;95243.16;;;;
2021/01/09 04:34:56;;;;;;;19.6;11.15;;;;;;;-1.37;87.3916;95243.16;;;;
2021/01/09 04:35:56;;;;;;;19.6;11.15;;;;;;;-1.37;87.3916;95243.16;;;;
2021/01/09 04:36:57;;;;;;;19.6;11.15;;;;;;;-1.37;87.3916;95243.16;;;;
2021/01/09 04:37:57;;;;;;;21.50001;11.65;;;;;;;-1.4;87.34473;95252.73;;;;
2021/01/09 04:38:58;;;;;;;21.50001;11.65;;;;;;;-1.4;87.34473;95252.73;;;;
2021/01/09 04:40:03;;;;;;;21.50001;11.65;;;;;;;-1.4;87.34473;95252.73;;;;
2021/01/09 04:41:05;;;;;;;21.50001;11.65;;;;;;;-1.4;87.34473;95252.73;;;;
2021/01/09 04:42:06;;;;;;;21.50001;11.65;;;;;;;-1.4;87.34473;95252.73;;;;
2021/01/09 04:43:06;;;;;;;21.50001;11.65;;;;;;;-1.4;87.34473;95252.73;;;;
2021/01/09 04:44:07;;;;;;;21.50001;11.65;;;;;;;-1.4;87.34473;95252.73;;;;
2021/01/09 04:45:10;;;;;;;21.50001;11.65;;;;;;;-1.4;87.34473;95252.73;;;;
2021/01/09 04:46:12;;;;;;;21.50001;11.65;;;;;;;-1.4;87.34473;95252.73;;;;
2021/01/09 04:47:15;;;;;;;21.50001;11.65;;;;;;;-1.4;87.34473;95252.73;;;;
2021/01/09 04:48:18;;;;;;;21.50001;11.65;;;;;;;-1.4;87.34473;95252.73;;;;
2021/01/09 04:49:19;;;;;;;19.1;10.7;;;;;;;-1.43;87.57324;95266.79;;;;
2021/01/09 04:50:22;;;;;;;19.1;10.7;;;;;;;-1.43;87.57324;95266.79;;;;
2021/01/09 04:51:23;;;;;;;19.1;10.7;;;;;;;-1.43;87.57324;95266.79;;;;
2021/01/09 04:52:24;;;;;;;19.1;10.7;;;;;;;-1.43;87.57324;95266.79;;;;
2021/01/09 04:53:26;;;;;;;19.1;10.7;;;;;;;-1.43;87.57324;95266.79;;;;
2021/01/09 04:54:29;;;;;;;19.1;10.7;;;;;;;-1.43;87.57324;95266.79;;;;
2021/01/09 04:55:32;;;;;;;19.1;10.7;;;;;;;-1.43;87.57324;95266.79;;;;
2021/01/09 04:56:34;;;;;;;19.1;10.7;;;;;;;-1.43;87.57324;95266.79;;;;
2021/01/09 04:57:35;;;;;;;19.1;10.7;;;;;;;-1.43;87.57324;95266.79;;;;
2021/01/09 04:58:36;;;;;;;19.1;10.7;;;;;;;-1.43;87.57324;95266.79;;;;
2021/01/09 04:59:38;;;;;;;19.5;10.35;;;;;;;-1.52;87.46484;95272.58;;;;
2021/01/09 05:00:40;;;;;;;19.5;10.35;;;;;;;-1.52;87.46484;95272.58;;;;
2021/01/09 05:01:40;;;;;;;19.5;10.35;;;;;;;-1.52;87.46484;95272.58;;;;
2021/01/09 05:02:42;;;;;;;19.5;10.35;;;;;;;-1.52;87.46484;95272.58;;;;
2021/01/09 05:03:48;;;;;;;19.5;10.35;;;;;;;-1.52;87.46484;95272.58;;;;
2021/01/09 05:04:48;;;;;;;19.5;10.35;;;;;;;-1.52;87.46484;95272.58;;;;
2021/01/09 05:05:49;;;;;;;19.5;10.35;;;;;;;-1.52;87.46484;95272.58;;;;
2021/01/09 05:06:50;;;;;;;19.5;10.35;;;;;;;-1.52;87.46484;95272.58;;;;
2021/01/09 05:07:50;;;;;;;19.5;10.35;;;;;;;-1.52;87.46484;95272.58;;;;
2021/01/09 05:08:51;;;;;;;19.5;10.35;;;;;;;-1.52;87.46484;95272.58;;;;
2021/01/09 05:09:51;;;;;;;16.6;9.85;;;;;;;-1.8;87.34473;95277.81;;;;
2021/01/09 05:11:00;;;;;;;16.6;9.85;;;;;;;-1.8;87.34473;95277.81;;;;
2021/01/09 05:12:02;;;;;;;16.6;9.85;;;;;;;-1.8;87.34473;95277.81;;;;
2021/01/09 05:13:04;;;;;;;16.6;9.85;;;;;;;-1.8;87.34473;95277.81;;;;
2021/01/09 05:14:05;;;;;;;16.6;9.85;;;;;;;-1.8;87.34473;95277.81;;;;
2021/01/09 05:15:06;;;;;;;16.6;9.85;;;;;;;-1.8;87.34473;95277.81;;;;
2021/01/09 05:16:08;;;;;;;16.6;9.85;;;;;;;-1.8;87.34473;95277.81;;;;
2021/01/09 05:17:09;;;;;;;16.6;9.85;;;;;;;-1.8;87.34473;95277.81;;;;
2021/01/09 05:18:11;;;;;;;16.6;9.85;;;;;;;-1.8;87.34473;95277.81;;;;
2021/01/09 05:19:11;;;;;;;16.6;9.85;;;;;;;-1.8;87.34473;95277.81;;;;
2021/01/09 05:20:12;;;;;;;16.6;9.85;;;;;;;-1.8;87.34473;95277.81;;;;
2021/01/09 05:21:13;;;;;;;18.95;10.4;;;;;;;-2.06;87.63184;95282.34;;;;
2021/01/09 05:22:15;;;;;;;18.95;10.4;;;;;;;-2.06;87.63184;95282.34;;;;
2021/01/09 05:23:17;;;;;;;18.95;10.4;;;;;;;-2.06;87.63184;95282.34;;;;
2021/01/09 05:24:18;;;;;;;18.95;10.4;;;;;;;-2.06;87.63184;95282.34;;;;
2021/01/09 05:25:21;;;;;;;18.95;10.4;;;;;;;-2.06;87.63184;95282.34;;;;
2021/01/09 05:26:23;;;;;;;18.95;10.4;;;;;;;-2.06;87.63184;95282.34;;;;
2021/01/09 05:27:24;;;;;;;18.95;10.4;;;;;;;-2.06;87.63184;95282.34;;;;
2021/01/09 05:28:25;;;;;;;18.95;10.4;;;;;;;-2.06;87.63184;95282.34;;;;
2021/01/09 05:29:26;;;;;;;18.95;10.4;;;;;;;-2.06;87.63184;95282.34;;;;
2021/01/09 05:30:27;;;;;;;18.95;10.4;;;;;;;-2.06;87.63184;95282.34;;;;
2021/01/09 05:31:27;;;;;;;20.35;11.25;;;;;;;-2.15;88.34863;95293.87;;;;
2021/01/09 05:32:29;;;;;;;20.35;11.25;;;;;;;-2.15;88.34863;95293.87;;;;
2021/01/09 05:33:29;;;;;;;20.35;11.25;;;;;;;-2.15;88.34863;95293.87;;;;
2021/01/09 05:34:30;;;;;;;20.35;11.25;;;;;;;-2.15;88.34863;95293.87;;;;
2021/01/09 05:35:30;;;;;;;20.35;11.25;;;;;;;-2.15;88.34863;95293.87;;;;
2021/01/09 05:36:31;;;;;;;20.35;11.25;;;;;;;-2.15;88.34863;95293.87;;;;
2021/01/09 05:37:33;;;;;;;20.35;11.25;;;;;;;-2.15;88.34863;95293.87;;;;